Time;durP1;ratioP1;P1;durP2;ratioP2;P2;SDS_P1;SDS_P2;PMS_P1;PMS_P2;Temp;Humidity;BMP_temperature;BMP_pressure;BME280_temperature;BME280_humidity;BME280_pressure;Samples;Min_cycle;Max_cycle;Signal;HPM_P1;HPM_P2
2021/12/07 00:01:27;;;;;;;4.28;2.17;;;;;;;4.88;100.00;99504.84;4995770;28;20572;-65
2021/12/07 00:03:53;;;;;;;4.55;2.50;;;;;;;4.95;100.00;99522.28;4996058;28;20033;-65
2021/12/07 00:06:19;;;;;;;9.85;5.78;;;;;;;4.94;100.00;99510.00;4985190;28;20117;-65
2021/12/07 00:08:45;;;;;;;4.10;2.25;;;;;;;4.88;100.00;99515.38;4996947;28;20749;-65
2021/12/07 00:11:11;;;;;;;4.47;2.53;;;;;;;4.89;99.82;99517.13;4988159;28;20135;-65
2021/12/07 00:13:39;;;;;;;3.92;2.28;;;;;;;4.92;99.71;99516.22;4990511;28;20050;-65
2021/12/07 00:16:08;;;;;;;4.88;2.78;;;;;;;4.93;99.91;99518.81;4995461;28;20030;-65
2021/12/07 00:18:33;;;;;;;4.30;2.10;;;;;;;4.93;99.85;99523.19;4987656;28;20522;-65
2021/12/07 00:20:59;;;;;;;3.08;2.00;;;;;;;5.04;99.92;99524.75;4996522;28;20072;-65
2021/12/07 00:23:25;;;;;;;5.13;2.45;;;;;;;5.03;99.53;99523.03;4993750;28;20077;-65
2021/12/07 00:25:50;;;;;;;3.00;2.00;;;;;;;5.07;98.82;99510.66;4994523;28;20482;-65
2021/12/07 00:28:19;;;;;;;4.47;2.33;;;;;;;5.15;98.84;99520.16;4990795;28;20061;-65
2021/12/07 00:30:45;;;;;;;4.03;2.03;;;;;;;5.02;98.35;99492.31;4992934;28;20030;-65
2021/12/07 00:33:29;;;;;;;3.60;2.33;;;;;;;5.07;98.38;99505.38;4984499;28;20030;-65
2021/12/07 00:35:54;;;;;;;4.30;2.78;;;;;;;5.16;98.62;99518.38;4993891;28;20022;-65
2021/12/07 00:38:24;;;;;;;5.15;2.65;;;;;;;5.12;98.22;99508.81;4994894;28;20036;-65
2021/12/07 00:40:52;;;;;;;3.20;2.08;;;;;;;5.16;98.23;99514.00;4990913;28;20034;-65
2021/12/07 00:43:18;;;;;;;3.30;2.20;;;;;;;5.16;97.01;99516.63;4979250;28;20450;-65
2021/12/07 00:45:45;;;;;;;4.15;2.63;;;;;;;5.14;97.35;99499.97;4976458;28;20026;-65
2021/12/07 00:48:13;;;;;;;6.40;2.53;;;;;;;5.25;96.81;99497.13;4987726;28;20026;-64
2021/12/07 00:50:41;;;;;;;4.05;2.17;;;;;;;5.25;96.83;99505.88;4993811;28;20042;-64
2021/12/07 00:53:08;;;;;;;4.63;2.47;;;;;;;5.30;97.19;99496.13;4994961;28;20475;-64
2021/12/07 00:55:37;;;;;;;3.17;1.90;;;;;;;5.29;96.85;99502.31;4987324;28;20466;-64
2021/12/07 00:58:12;;;;;;;3.92;2.63;;;;;;;5.22;96.60;99486.66;4991847;28;20030;-64
2021/12/07 01:00:38;;;;;;;3.55;2.30;;;;;;;5.29;96.34;99499.66;4993249;28;20514;-64
2021/12/07 01:03:04;;;;;;;3.80;2.17;;;;;;;5.35;95.83;99482.88;4999971;28;20529;-64
2021/12/07 01:05:32;;;;;;;4.50;2.25;;;;;;;5.37;96.18;99495.09;4976905;28;20022;-64
2021/12/07 01:08:16;;;;;;;4.35;2.30;;;;;;;5.28;96.00;99497.06;4982698;28;20037;-64
2021/12/07 01:24:41;;;;;;;;;;;;;;;5.47;94.59;99506.34;4994216;28;20100;-64
2021/12/07 01:27:09;;;;;;;4.32;2.10;;;;;;;5.47;95.05;99505.47;4984061;28;20325;-64
2021/12/07 01:29:36;;;;;;;4.70;2.13;;;;;;;5.49;95.51;99507.16;4976409;28;20624;-64
2021/12/07 01:32:32;;;;;;;5.15;2.20;;;;;;;5.52;95.75;99511.53;4976199;28;20033;-64
2021/12/07 01:40:47;;;;;;;3.13;1.98;;;;;;;5.61;96.21;99527.16;4974526;28;20037;-64
2021/12/07 02:01:53;;;;;;;4.18;2.00;;;;;;;5.77;96.77;99547.03;4992401;28;20034;-64
2021/12/07 02:04:19;;;;;;;2.47;1.73;;;;;;;5.79;96.86;99539.97;4993086;28;20056;-64
2021/12/07 02:06:45;;;;;;;3.88;2.17;;;;;;;5.77;96.88;99560.22;4993488;28;20049;-64
2021/12/07 02:09:12;;;;;;;4.97;2.47;;;;;;;5.79;96.89;99564.59;4973387;28;20046;-64
2021/12/07 02:11:47;;;;;;;2.50;1.70;;;;;;;5.80;97.13;99568.97;4972992;28;20391;-64
2021/12/07 02:14:18;;;;;;;5.68;2.17;;;;;;;5.79;97.12;99572.50;4975145;28;20046;-64
2021/12/07 02:17:00;;;;;;;3.10;1.67;;;;;;;5.86;97.20;99574.16;4991176;28;20028;-64
2021/12/07 02:19:25;;;;;;;3.08;1.70;;;;;;;5.82;96.94;99568.91;4973447;28;20103;-64
2021/12/07 02:21:53;;;;;;;3.08;1.92;;;;;;;5.81;96.98;99562.78;4979155;28;20022;-64
2021/12/07 02:24:20;;;;;;;3.58;1.52;;;;;;;5.88;97.44;99564.41;4972906;28;20529;-64
2021/12/07 02:26:47;;;;;;;2.90;1.70;;;;;;;5.77;96.67;99553.19;4976680;28;20027;-64
2021/12/07 02:29:13;;;;;;;3.58;1.60;;;;;;;5.89;97.36;99579.38;4980161;28;20117;-65
2021/12/07 02:31:39;;;;;;;1.98;1.55;;;;;;;5.85;97.19;99566.28;4992677;28;20109;-64
2021/12/07 02:34:05;;;;;;;3.50;2.28;;;;;;;5.88;97.74;99571.50;4992587;28;20656;-64
2021/12/07 02:36:31;;;;;;;3.90;1.85;;;;;;;5.88;97.15;99560.94;4981964;28;20022;-64
2021/12/07 02:38:56;;;;;;;2.92;1.88;;;;;;;5.87;97.44;99559.19;4992098;28;20053;-64
2021/12/07 02:41:22;;;;;;;1.73;1.27;;;;;;;5.76;97.03;99554.09;4983680;28;20509;-64
2021/12/07 02:43:48;;;;;;;3.15;1.70;;;;;;;5.80;97.11;99557.56;4979684;28;20031;-64
2021/12/07 02:46:13;;;;;;;3.55;2.00;;;;;;;5.76;97.36;99561.16;4977387;28;20046;-64
2021/12/07 02:48:39;;;;;;;3.25;1.75;;;;;;;5.74;98.27;99557.66;4974307;28;20030;-64
2021/12/07 02:51:04;;;;;;;2.30;1.40;;;;;;;5.74;97.73;99563.81;4983994;28;20073;-64
2021/12/07 02:53:32;;;;;;;3.40;2.10;;;;;;;5.82;98.32;99579.47;4990714;28;20029;-64
2021/12/07 02:56:01;;;;;;;1.80;1.27;;;;;;;5.79;98.23;99576.91;4987144;28;20038;-64
2021/12/07 02:58:27;;;;;;;2.95;1.55;;;;;;;5.82;98.72;99580.38;4986841;28;20393;-64
2021/12/07 03:01:01;;;;;;;3.38;1.50;;;;;;;5.89;98.38;99589.06;4991177;28;20027;-64
2021/12/07 03:03:30;;;;;;;3.33;1.55;;;;;;;5.81;98.33;99575.13;4982399;28;20026;-64
2021/12/07 03:27:28;;;;;;;;;;;;;;;5.77;99.63;99616.53;4988109;28;20702;-64
2021/12/07 03:29:54;;;;;;;3.05;1.70;;;;;;;5.78;99.37;99622.69;4991684;28;19913;-64
2021/12/07 03:32:19;;;;;;;3.03;1.92;;;;;;;5.83;99.86;99631.41;4991613;28;20474;-64
2021/12/07 03:34:45;;;;;;;2.35;1.38;;;;;;;5.77;99.55;99636.75;4989782;28;20027;-64
2021/12/07 03:37:10;;;;;;;2.20;1.52;;;;;;;5.76;99.70;99635.03;4976774;28;20034;-64
2021/12/07 03:39:36;;;;;;;6.05;2.05;;;;;;;5.58;99.75;99603.72;4971502;28;20029;-64
2021/12/07 03:42:02;;;;;;;3.30;1.85;;;;;;;5.79;99.19;99624.41;4983616;28;20018;-64
2021/12/07 03:44:27;;;;;;;3.15;2.17;;;;;;;5.79;99.84;99649.03;4990727;28;20033;-64
2021/12/07 03:46:52;;;;;;;3.97;2.53;;;;;;;5.89;99.15;99649.75;4986838;28;20053;-64
2021/12/07 03:49:18;;;;;;;4.03;1.90;;;;;;;5.94;98.74;99646.13;4985076;28;20038;-64
2021/12/07 03:51:44;;;;;;;3.58;2.42;;;;;;;5.93;99.12;99648.81;4990543;28;20516;-64
2021/12/07 03:54:10;;;;;;;1.92;1.67;;;;;;;5.89;99.15;99657.66;4994200;28;20029;-64
2021/12/07 03:56:35;;;;;;;4.22;1.95;;;;;;;5.88;98.75;99661.22;4971670;28;20039;-64
2021/12/07 03:59:01;;;;;;;2.22;1.60;;;;;;;5.85;98.85;99671.84;4974041;28;20391;-64
2021/12/07 04:01:26;;;;;;;2.83;2.63;;;;;;;5.81;98.29;99673.63;4976898;28;20479;-64
2021/12/07 04:03:53;;;;;;;5.70;2.83;;;;;;;5.93;98.37;99685.75;4970592;28;20023;-64
2021/12/07 04:06:20;;;;;;;2.50;1.92;;;;;;;5.88;98.13;99687.63;4972858;28;20401;-64
2021/12/07 04:08:46;;;;;;;4.03;1.77;;;;;;;5.89;97.69;99684.06;4990896;28;20030;-64
2021/12/07 04:11:12;;;;;;;8.50;2.28;;;;;;;5.91;98.28;99698.09;4990616;28;20041;-64
2021/12/07 04:13:40;;;;;;;7.68;2.88;;;;;;;5.92;98.19;99699.84;4991070;28;20410;-64
2021/12/07 04:16:07;;;;;;;9.30;4.03;;;;;;;5.92;98.58;99699.84;4987788;28;20034;-64
2021/12/07 04:18:34;;;;;;;6.13;2.72;;;;;;;5.86;98.74;99697.31;4985674;28;20061;-64
2021/12/07 04:21:01;;;;;;;4.45;2.50;;;;;;;5.85;99.30;99703.50;4991473;28;20022;-64
2021/12/07 04:23:27;;;;;;;9.02;4.55;;;;;;;5.82;100.00;99692.94;4991985;28;20129;-64
2021/12/07 04:25:53;;;;;;;5.65;3.72;;;;;;;5.92;99.65;99715.66;4990797;28;20375;-64
2021/12/07 04:28:18;;;;;;;6.25;3.53;;;;;;;5.93;99.94;99718.28;4986382;28;20034;-64
2021/12/07 04:30:45;;;;;;;5.90;4.43;;;;;;;5.92;99.34;99731.50;4978168;28;20050;-64
2021/12/07 04:33:12;;;;;;;9.57;8.57;;;;;;;5.90;99.55;99720.09;4971069;28;20409;-64
2021/12/07 04:35:45;;;;;;;9.98;5.57;;;;;;;5.87;99.51;99722.81;4973495;28;20049;-65
2021/12/07 04:38:11;;;;;;;;;;;;;;;5.86;99.17;99721.94;4976881;28;20030;-65
2021/12/07 04:40:36;;;;;;;5.25;4.18;;;;;;;5.83;99.51;99719.34;4973846;28;20664;-65
2021/12/07 04:43:04;;;;;;;6.47;4.93;;;;;;;5.81;99.72;99733.44;4981205;28;20109;-65
2021/12/07 04:58:50;;;;;;;16.08;14.18;;;;;;;5.84;100.00;99749.25;4974233;28;20024;-65
2021/12/07 05:01:15;;;;;;;12.52;9.80;;;;;;;5.84;100.00;99746.63;4974939;28;20018;-65
2021/12/07 05:03:42;;;;;;;6.20;4.07;;;;;;;5.89;100.00;99743.00;4977762;28;20126;-65
2021/12/07 05:06:10;;;;;;;8.80;5.18;;;;;;;5.83;100.00;99736.97;4988359;28;20433;-64
2021/12/07 05:08:44;;;;;;;15.57;6.93;;;;;;;5.89;100.00;99758.84;5006647;28;20518;-64
2021/12/07 05:11:25;;;;;;;34.80;13.63;;;;;;;5.93;100.00;99749.94;4987122;28;20030;-64
2021/12/07 05:13:57;;;;;;;20.15;17.70;;;;;;;5.89;100.00;99764.13;4993147;28;20061;-65
2021/12/07 05:16:33;;;;;;;10.25;7.60;;;;;;;5.83;100.00;99764.22;4983068;28;20371;-64
2021/12/07 05:23:55;;;;;;;7.70;5.40;;;;;;;5.76;100.00;99769.59;4973245;28;20680;-64
2021/12/07 05:38:16;;;;;;;;;;;;;;;5.51;100.00;99776.19;4992647;28;20551;-64
2021/12/07 05:40:42;;;;;;;5.53;3.58;;;;;;;5.42;100.00;99778.97;4992973;28;19909;-64
2021/12/07 05:43:07;;;;;;;9.98;7.13;;;;;;;5.47;100.00;99787.69;4993502;28;20026;-64
2021/12/07 05:45:36;;;;;;;8.75;6.38;;;;;;;5.44;100.00;99788.59;4991908;28;20034;-64
2021/12/07 05:48:04;;;;;;;3.95;3.10;;;;;;;5.44;100.00;99795.66;4997394;28;20030;-64
2021/12/07 05:50:32;;;;;;;13.38;10.02;;;;;;;5.42;100.00;99798.28;4991314;28;20026;-64
2021/12/07 05:52:59;;;;;;;32.10;23.67;;;;;;;5.45;100.00;99798.25;4993090;28;20046;-64
2021/12/07 05:55:25;;;;;;;93.18;46.85;;;;;;;5.49;100.00;99794.66;4992479;28;20101;-65
2021/12/07 05:57:50;;;;;;;14.10;9.88;;;;;;;5.48;100.00;99810.53;4990088;28;20030;-65
2021/12/07 06:00:25;;;;;;;11.43;8.10;;;;;;;5.37;100.00;99814.19;4991124;28;20030;-65
2021/12/07 06:02:53;;;;;;;9.73;6.55;;;;;;;5.46;100.00;99825.50;4991487;28;20019;-65
2021/12/07 06:05:18;;;;;;;11.02;9.05;;;;;;;5.51;100.00;99818.38;4992311;28;20026;-65
2021/12/07 06:07:44;;;;;;;6.97;5.05;;;;;;;5.49;100.00;99801.69;4982842;28;20074;-65
2021/12/07 06:10:09;;;;;;;7.05;3.20;;;;;;;5.51;100.00;99824.53;4976951;28;20074;-65
2021/12/07 06:12:35;;;;;;;6.18;4.18;;;;;;;5.52;100.00;99833.34;4983098;28;20574;-65
2021/12/07 06:15:01;;;;;;;19.50;10.65;;;;;;;5.54;100.00;99828.88;4988832;28;20386;-65
2021/12/07 06:17:26;;;;;;;7.72;6.90;;;;;;;5.59;100.00;99838.47;4992214;28;20073;-65
2021/12/07 06:19:52;;;;;;;4.50;2.40;;;;;;;5.58;100.00;99842.03;4992755;28;20102;-65
2021/12/07 06:22:17;;;;;;;4.88;2.70;;;;;;;5.60;100.00;99847.28;4988889;28;20421;-65
2021/12/07 06:24:43;;;;;;;5.43;2.67;;;;;;;5.61;100.00;99846.34;4972329;28;20122;-65
2021/12/07 06:27:08;;;;;;;4.05;2.40;;;;;;;5.61;100.00;99838.44;4997795;28;20038;-65
2021/12/07 06:29:34;;;;;;;9.30;3.50;;;;;;;5.63;100.00;99839.31;4994001;28;20042;-65
2021/12/07 06:31:59;;;;;;;10.95;2.65;;;;;;;5.69;100.00;99852.38;4987008;28;20030;-65
2021/12/07 06:34:25;;;;;;;6.47;3.00;;;;;;;5.65;100.00;99838.38;4976836;28;20400;-65
2021/12/07 06:36:50;;;;;;;7.95;3.08;;;;;;;5.69;100.00;99855.91;4972464;28;20037;-65
2021/12/07 06:39:18;;;;;;;13.38;3.15;;;;;;;5.64;100.00;99867.41;4980157;28;20029;-65
2021/12/07 06:41:44;;;;;;;6.63;2.65;;;;;;;5.63;100.00;99849.84;4991410;28;20431;-65
2021/12/07 06:44:09;;;;;;;5.90;2.40;;;;;;;5.63;100.00;99861.28;4986905;28;20113;-65
2021/12/07 06:46:35;;;;;;;6.32;3.03;;;;;;;5.57;100.00;99866.63;4989309;28;20569;-65
2021/12/07 06:49:00;;;;;;;18.35;6.30;;;;;;;5.60;100.00;99865.75;4991084;28;20069;-65
2021/12/07 06:51:26;;;;;;;31.10;13.27;;;;;;;5.66;100.00;99861.25;4990642;28;20014;-65
2021/12/07 06:53:51;;;;;;;37.35;18.10;;;;;;;5.66;100.00;99876.19;4991378;28;20093;-65
2021/12/07 06:56:17;;;;;;;14.95;6.72;;;;;;;5.65;100.00;99880.59;4990708;28;20026;-65
2021/12/07 06:58:42;;;;;;;15.68;6.38;;;;;;;5.69;100.00;99870.84;4991407;28;20387;-65
2021/12/07 07:01:11;;;;;;;17.27;5.45;;;;;;;5.69;100.00;99876.13;4993564;28;20069;-65
2021/12/07 07:03:36;;;;;;;48.72;8.73;;;;;;;5.72;100.00;99873.44;4991145;28;20026;-65
2021/12/07 07:06:03;;;;;;;9.15;3.63;;;;;;;5.68;100.00;99869.13;4990434;28;20108;-65
2021/12/07 07:08:28;;;;;;;7.20;3.83;;;;;;;5.64;100.00;99877.97;4990410;28;20503;-65
2021/12/07 07:10:54;;;;;;;3.92;2.22;;;;;;;5.66;100.00;99881.47;4989031;28;20061;-65
2021/12/07 07:13:19;;;;;;;6.80;2.15;;;;;;;5.68;100.00;99877.94;4990741;28;20100;-65
2021/12/07 07:15:45;;;;;;;3.80;1.77;;;;;;;5.67;100.00;99888.50;4990130;28;20119;-65
2021/12/07 07:18:10;;;;;;;6.35;2.25;;;;;;;5.69;100.00;99894.59;4992922;28;20031;-65
2021/12/07 07:20:37;;;;;;;6.22;2.50;;;;;;;5.67;100.00;99899.06;4987651;28;20439;-65
2021/12/07 07:23:03;;;;;;;5.00;2.30;;;;;;;5.62;100.00;99893.81;4976183;28;20026;-65
2021/12/07 07:25:29;;;;;;;4.82;2.60;;;;;;;5.71;100.00;99898.09;4972141;28;20118;-65
2021/12/07 07:27:54;;;;;;;4.30;2.28;;;;;;;5.72;100.00;99908.63;4972090;28;20109;-65
2021/12/07 07:30:21;;;;;;;4.93;2.75;;;;;;;5.72;100.00;99913.03;4979854;28;20106;-65
2021/12/07 07:32:47;;;;;;;8.50;3.40;;;;;;;5.73;100.00;99920.06;4978174;28;20818;-65
2021/12/07 07:35:15;;;;;;;4.68;2.22;;;;;;;5.76;100.00;99920.00;4985013;28;20042;-65
2021/12/07 07:37:40;;;;;;;4.22;2.97;;;;;;;5.77;99.95;99927.03;4987429;28;20092;-65
2021/12/07 07:40:10;;;;;;;4.00;2.90;;;;;;;5.75;100.00;99919.13;4983305;28;20030;-65
2021/12/07 07:42:36;;;;;;;6.80;3.53;;;;;;;5.80;99.60;99921.72;4970603;28;20035;-65
2021/12/07 07:45:03;;;;;;;7.45;4.03;;;;;;;5.80;99.62;99912.03;4979319;28;20034;-65
2021/12/07 07:47:29;;;;;;;7.13;3.88;;;;;;;5.84;99.61;99923.44;4988850;28;20036;-65
2021/12/07 07:49:54;;;;;;;5.15;2.72;;;;;;;5.84;99.67;99919.03;4973712;28;20393;-65
2021/12/07 07:52:20;;;;;;;7.68;3.60;;;;;;;5.77;99.55;99909.44;4984778;28;20494;-65
2021/12/07 07:54:45;;;;;;;9.10;3.63;;;;;;;5.83;99.18;99927.84;4996511;28;20580;-65
2021/12/07 07:57:11;;;;;;;5.80;2.85;;;;;;;5.85;99.55;99936.59;5003234;28;20460;-65
2021/12/07 07:59:38;;;;;;;6.70;3.15;;;;;;;5.88;99.50;99941.00;4981025;28;20041;-65
2021/12/07 08:02:04;;;;;;;5.55;2.95;;;;;;;5.90;99.40;99928.63;4973970;28;20054;-65
2021/12/07 08:04:30;;;;;;;5.85;2.85;;;;;;;5.93;99.29;99939.16;4983957;28;20115;-65
2021/12/07 08:06:55;;;;;;;7.18;2.90;;;;;;;5.95;98.79;99935.56;5006975;28;20026;-65
2021/12/07 08:09:20;;;;;;;5.03;2.45;;;;;;;6.00;98.68;99940.78;4982118;28;20034;-65
2021/12/07 08:11:46;;;;;;;6.07;2.67;;;;;;;5.96;98.95;99934.69;4981844;28;20030;-65
2021/12/07 08:14:11;;;;;;;5.70;2.63;;;;;;;5.97;97.97;99935.56;4987779;28;20054;-65
2021/12/07 08:16:38;;;;;;;5.78;3.58;;;;;;;5.97;97.67;99940.84;4989794;28;20037;-65
2021/12/07 08:19:04;;;;;;;7.13;3.28;;;;;;;5.92;97.31;99926.84;4988128;28;20469;-65
2021/12/07 08:21:30;;;;;;;4.90;3.17;;;;;;;6.00;97.65;99944.31;5000842;28;20030;-65
2021/12/07 08:23:55;;;;;;;9.85;3.38;;;;;;;6.07;97.63;99940.69;4994582;28;20033;-65
2021/12/07 08:26:23;;;;;;;4.75;2.65;;;;;;;6.11;98.09;99938.88;4989232;28;20057;-65
2021/12/07 08:28:51;;;;;;;5.80;3.70;;;;;;;6.09;97.60;99933.63;4993556;28;20073;-65
2021/12/07 08:31:16;;;;;;;12.63;4.03;;;;;;;6.22;97.13;99939.56;4990944;28;20026;-65
2021/12/07 08:33:42;;;;;;;4.50;2.40;;;;;;;6.20;97.15;99943.97;4990605;28;20060;-65
2021/12/07 08:36:07;;;;;;;2.47;1.90;;;;;;;6.23;96.23;99943.94;4985713;28;20034;-65
2021/12/07 08:38:33;;;;;;;4.13;1.92;;;;;;;6.32;95.87;99943.78;4978088;28;20030;-65
2021/12/07 08:40:59;;;;;;;4.35;1.98;;;;;;;6.23;95.71;99939.53;4971688;28;20038;-65
2021/12/07 08:43:30;;;;;;;4.25;1.80;;;;;;;6.29;95.58;99951.78;4989791;28;20034;-66
2021/12/07 08:45:59;;;;;;;4.93;1.80;;;;;;;6.24;95.63;99943.91;4992341;28;20065;-65
2021/12/07 08:48:26;;;;;;;4.90;1.90;;;;;;;6.26;95.55;99955.31;4990254;28;20073;-65
2021/12/07 08:50:51;;;;;;;3.03;1.60;;;;;;;6.30;94.82;99957.03;4987856;28;20046;-65
2021/12/07 08:53:19;;;;;;;3.15;1.73;;;;;;;6.33;94.85;99948.16;4989894;28;20034;-65
2021/12/07 09:01:18;;;;;;;4.00;1.90;;;;;;;6.45;94.53;99945.31;4986216;28;20100;-65
2021/12/07 09:03:44;;;;;;;3.15;1.95;;;;;;;6.53;93.82;99953.97;4989088;28;20026;-65
2021/12/07 09:06:11;;;;;;;3.42;1.98;;;;;;;6.52;93.70;99957.53;4987475;28;20034;-65
2021/12/07 09:08:36;;;;;;;3.88;1.75;;;;;;;6.52;93.90;99957.53;4986966;28;20053;-65
2021/12/07 09:11:03;;;;;;;3.65;2.20;;;;;;;6.51;93.65;99961.06;4987530;28;20065;-65
2021/12/07 09:13:29;;;;;;;6.35;2.28;;;;;;;6.56;93.56;99953.94;4988245;28;20054;-65
2021/12/07 09:15:56;;;;;;;7.60;2.40;;;;;;;6.58;93.20;99968.00;4990425;28;20457;-65
2021/12/07 09:18:23;;;;;;;4.00;1.85;;;;;;;6.56;93.31;99969.78;4985382;28;20585;-65
2021/12/07 09:20:48;;;;;;;5.15;2.03;;;;;;;6.64;92.96;99967.88;4967364;28;20046;-64
2021/12/07 09:23:14;;;;;;;5.55;1.92;;;;;;;6.70;93.47;99965.16;4979067;28;20038;-65
2021/12/07 09:25:40;;;;;;;5.85;2.72;;;;;;;6.72;92.57;99959.81;4988199;28;20042;-65
2021/12/07 09:28:06;;;;;;;6.07;1.70;;;;;;;6.75;92.97;99955.34;4985183;28;20816;-65
2021/12/07 09:30:32;;;;;;;3.38;2.05;;;;;;;6.86;92.42;99956.03;4985326;28;20050;-65
2021/12/07 09:32:57;;;;;;;4.72;1.83;;;;;;;7.01;91.47;99953.09;4995264;28;20600;-65
2021/12/07 09:35:24;;;;;;;4.20;1.88;;;;;;;7.21;90.88;99952.69;5003221;28;20412;-65
2021/12/07 09:37:51;;;;;;;4.57;2.00;;;;;;;8.66;86.17;99947.56;4986412;28;20038;-64
2021/12/07 09:40:19;;;;;;;8.30;2.05;;;;;;;11.09;70.72;99944.38;4976766;28;20026;-64
2021/12/07 09:42:46;;;;;;;4.35;2.65;;;;;;;13.11;61.12;99936.25;4980337;28;20077;-64
2021/12/07 09:45:14;;;;;;;7.68;2.83;;;;;;;14.83;54.27;99944.03;4983431;28;20034;-64
2021/12/07 09:47:40;;;;;;;5.25;2.83;;;;;;;15.32;51.66;99943.22;4986954;28;20886;-63
2021/12/07 09:50:09;;;;;;;4.55;2.13;;;;;;;14.39;51.75;99938.22;4983427;28;20049;-63
2021/12/07 09:52:34;;;;;;;4.35;2.33;;;;;;;12.54;54.30;99944.91;4992731;28;20033;-63
2021/12/07 09:55:00;;;;;;;7.57;2.20;;;;;;;11.21;58.33;99949.28;4990900;28;20109;-63
2021/12/07 09:57:26;;;;;;;4.70;1.88;;;;;;;10.74;61.91;99935.91;4982054;28;20084;-63
2021/12/07 09:59:51;;;;;;;4.03;2.20;;;;;;;10.09;64.24;99948.72;4991445;28;20034;-63
2021/12/07 10:02:18;;;;;;;3.30;1.80;;;;;;;9.60;68.00;99940.47;4989227;28;20022;-63
2021/12/07 10:04:44;;;;;;;4.43;1.98;;;;;;;9.43;69.09;99935.66;5010333;28;20028;-63
2021/12/07 10:07:10;;;;;;;7.07;2.58;;;;;;;9.01;70.51;99929.78;4986658;28;20097;-63
2021/12/07 10:09:37;;;;;;;3.95;2.15;;;;;;;8.69;73.54;99931.56;4992725;28;20541;-64
2021/12/07 10:12:03;;;;;;;4.75;2.33;;;;;;;8.50;74.98;99925.03;4992795;28;20022;-64
2021/12/07 10:14:37;;;;;;;5.07;2.38;;;;;;;8.44;76.07;99927.81;4984150;28;20047;-63
2021/12/07 10:17:03;;;;;;;4.78;2.42;;;;;;;8.47;76.82;99917.13;4973691;28;20039;-63
2021/12/07 10:19:30;;;;;;;4.05;2.58;;;;;;;8.37;76.56;99919.16;4994554;28;20113;-64
2021/12/07 10:22:11;;;;;;;5.85;2.88;;;;;;;8.30;77.05;99917.59;4988919;28;20046;-63
2021/12/07 10:24:48;;;;;;;4.43;2.30;;;;;;;8.41;77.20;99909.34;4982866;28;20101;-64
2021/12/07 10:27:31;;;;;;;8.43;2.58;;;;;;;8.37;76.30;99903.25;4972823;28;20030;-64
2021/12/07 10:29:57;;;;;;;4.95;2.00;;;;;;;8.31;75.59;99889.28;4992025;28;20034;-63
2021/12/07 10:32:23;;;;;;;6.97;2.72;;;;;;;8.34;76.30;99892.72;4993994;28;20038;-63
2021/12/07 10:34:48;;;;;;;6.13;3.00;;;;;;;8.43;76.05;99891.63;4981894;28;20034;-63
2021/12/07 10:37:17;;;;;;;5.88;3.42;;;;;;;8.49;77.14;99886.16;4979227;28;20388;-63
2021/12/07 10:39:49;;;;;;;10.52;3.30;;;;;;;8.50;77.56;99872.00;4988784;28;20034;-63
2021/12/07 10:42:27;;;;;;;7.55;3.90;;;;;;;8.37;77.56;99875.91;4977118;28;20479;-63
2021/12/07 10:44:53;;;;;;;7.43;3.88;;;;;;;8.46;77.97;99875.63;4971944;28;20094;-63
2021/12/07 10:47:21;;;;;;;9.23;3.13;;;;;;;8.46;77.77;99881.81;4984611;28;20029;-63
2021/12/07 10:49:55;;;;;;;9.80;3.47;;;;;;;8.38;78.03;99872.31;4971406;28;20026;-63
2021/12/07 10:52:20;;;;;;;;;;;;;;;8.41;77.40;99870.47;4978404;28;20031;-63
2021/12/07 10:54:52;;;;;;;6.40;2.75;;;;;;;8.49;77.94;99859.66;4991166;28;19916;-63
2021/12/07 10:57:30;;;;;;;14.13;5.10;;;;;;;8.59;76.23;99862.03;4989754;28;20022;-63
2021/12/07 11:00:00;;;;;;;10.38;3.60;;;;;;;8.75;76.14;99851.84;4993329;28;20030;-63
2021/12/07 11:02:30;;;;;;;9.25;3.35;;;;;;;9.05;75.13;99845.69;4991256;28;20014;-63
2021/12/07 11:04:56;;;;;;;10.10;3.67;;;;;;;9.62;72.31;99849.22;4981900;28;20062;-63
2021/12/07 11:07:24;;;;;;;8.23;3.55;;;;;;;10.75;65.79;99844.53;4991825;28;20034;-63
2021/12/07 11:09:56;;;;;;;4.32;2.58;;;;;;;11.43;61.42;99813.53;4991410;28;20033;-63
2021/12/07 11:12:22;;;;;;;5.35;2.28;;;;;;;12.06;57.55;99826.94;4991129;28;20041;-62
2021/12/07 11:14:52;;;;;;;6.75;1.98;;;;;;;12.35;58.06;99821.25;4987135;28;20037;-62
2021/12/07 11:17:25;;;;;;;4.00;2.10;;;;;;;13.08;57.21;99809.06;4991104;28;20026;-62
2021/12/07 11:19:52;;;;;;;3.65;1.77;;;;;;;13.07;54.79;99807.34;4983775;28;20030;-62
2021/12/07 11:22:21;;;;;;;4.97;1.75;;;;;;;13.17;54.01;99806.00;4990395;28;20433;-62
2021/12/07 11:24:47;;;;;;;3.10;2.08;;;;;;;12.34;56.01;99803.50;4992053;28;20030;-63
2021/12/07 11:30:06;;;;;;;7.28;1.63;;;;;;;10.52;60.47;99798.34;4988547;28;20036;-64
2021/12/07 11:32:32;;;;;;;4.47;2.03;;;;;;;10.08;62.84;99790.19;4991519;28;20049;-62
2021/12/07 11:35:14;;;;;;;8.32;2.50;;;;;;;9.86;64.85;99789.13;4992194;28;20088;-62
2021/12/07 11:37:40;;;;;;;4.65;2.10;;;;;;;10.30;64.33;99786.75;4986273;28;20022;-62
2021/12/07 11:40:08;;;;;;;3.58;1.77;;;;;;;11.26;59.88;99770.72;4991060;28;20027;-62
2021/12/07 11:42:38;;;;;;;3.97;2.00;;;;;;;11.96;56.89;99768.75;4982387;28;20026;-62
2021/12/07 11:45:15;;;;;;;4.72;2.00;;;;;;;12.60;54.55;99763.22;4971351;28;20151;-63
2021/12/07 11:47:45;;;;;;;5.10;2.25;;;;;;;12.67;54.62;99754.00;4972507;28;20145;-62
2021/12/07 11:50:14;;;;;;;5.60;2.13;;;;;;;13.41;52.35;99755.03;4975851;28;20030;-62
2021/12/07 11:52:40;;;;;;;4.18;1.60;;;;;;;13.61;51.33;99749.56;4971502;28;20443;-62
2021/12/07 11:55:07;;;;;;;5.20;1.88;;;;;;;13.59;51.53;99746.13;4972363;28;20086;-62
2021/12/07 11:57:34;;;;;;;3.65;2.28;;;;;;;13.38;53.15;99742.66;4974018;28;20026;-62
2021/12/07 11:59:59;;;;;;;6.38;1.60;;;;;;;13.33;51.19;99743.84;5003666;28;20397;-62
2021/12/07 12:02:25;;;;;;;5.15;1.38;;;;;;;12.56;51.96;99740.28;5001145;28;20030;-63
2021/12/07 12:04:50;;;;;;;6.22;1.92;;;;;;;11.86;54.41;99728.31;4983630;28;20030;-63
2021/12/07 12:07:19;;;;;;;3.85;1.70;;;;;;;11.23;57.01;99722.91;4992980;28;20026;-63
2021/12/07 12:09:49;;;;;;;4.78;1.85;;;;;;;10.75;58.65;99720.38;4987854;28;20524;-62
2021/12/07 12:12:51;;;;;;;2.70;1.70;;;;;;;10.35;61.10;99726.31;4990809;28;20022;-62
2021/12/07 12:15:35;;;;;;;3.90;1.92;;;;;;;10.19;61.22;99714.50;4992898;28;20490;-62
2021/12/07 12:18:14;;;;;;;;;;;;;;;10.12;63.32;99712.97;4991816;28;20113;-63
2021/12/07 12:21:10;;;;;;;3.03;1.73;;;;;;;9.90;63.47;99708.44;4989765;28;19956;-63
2021/12/07 12:24:04;;;;;;;3.55;1.98;;;;;;;9.65;63.50;99708.41;4987781;28;20090;-64
2021/12/07 12:26:30;;;;;;;4.93;1.88;;;;;;;9.65;65.95;99684.50;4975778;28;20562;-64
2021/12/07 12:28:57;;;;;;;5.25;1.90;;;;;;;9.66;64.75;99685.34;4971071;28;20438;-64
2021/12/07 12:31:44;;;;;;;5.30;1.83;;;;;;;9.65;64.87;99680.97;4971408;28;20035;-64
2021/12/07 12:34:37;;;;;;;4.68;1.60;;;;;;;9.58;63.67;99682.97;4976562;28;20112;-64
2021/12/07 12:37:06;;;;;;;4.80;1.90;;;;;;;9.45;63.96;99671.03;4972622;28;20410;-64
2021/12/07 12:39:52;;;;;;;4.07;2.00;;;;;;;9.32;65.31;99661.75;4988684;28;20028;-64
2021/12/07 12:42:25;;;;;;;5.82;2.67;;;;;;;9.38;65.29;99660.66;4970908;28;20026;-64
2021/12/07 12:45:08;;;;;;;3.15;1.50;;;;;;;9.30;66.12;99651.19;4971267;28;20034;-64
2021/12/07 12:47:33;;;;;;;8.57;2.05;;;;;;;9.32;66.33;99649.31;4973031;28;20041;-64
2021/12/07 12:50:11;;;;;;;2.88;1.70;;;;;;;9.42;66.01;99646.38;4984309;28;20038;-64
2021/12/07 12:52:43;;;;;;;3.92;1.58;;;;;;;9.37;64.39;99633.28;5009983;28;20449;-65
2021/12/07 12:55:28;;;;;;;2.38;1.25;;;;;;;9.28;63.87;99630.91;4983680;28;20036;-64
2021/12/07 12:57:53;;;;;;;31.77;13.18;;;;;;;9.29;62.79;99637.97;4990705;28;20092;-64
2021/12/07 13:00:20;;;;;;;14.10;5.22;;;;;;;9.39;63.60;99634.06;4991556;28;20580;-64
2021/12/07 13:02:53;;;;;;;6.05;2.15;;;;;;;9.32;61.96;99629.91;4992078;28;20030;-64
2021/12/07 13:05:33;;;;;;;7.63;2.53;;;;;;;9.39;61.84;99627.91;4986595;28;20026;-64
2021/12/07 13:08:14;;;;;;;2.58;1.48;;;;;;;9.41;62.59;99631.38;4993254;28;20022;-64
2021/12/07 13:11:01;;;;;;;2.78;1.58;;;;;;;9.41;60.98;99626.91;4990233;28;20132;-64
2021/12/07 13:13:32;;;;;;;4.93;1.50;;;;;;;9.47;61.66;99621.41;4993150;28;20410;-64
2021/12/07 13:15:58;;;;;;;3.95;1.88;;;;;;;9.52;62.60;99614.16;4983613;28;20065;-64
2021/12/07 13:18:31;;;;;;;5.03;2.40;;;;;;;9.57;62.54;99601.56;4975287;28;20066;-64
2021/12/07 13:20:56;;;;;;;2.78;1.50;;;;;;;9.60;62.56;99590.88;4976798;28;20026;-64
2021/12/07 13:23:28;;;;;;;2.55;1.30;;;;;;;9.55;62.49;99584.84;4988024;28;20041;-64